sensor_id;sensor_type;location;lat;lon;timestamp;temperature;humidity
22450;DHT22;11392;57.390;-2.468;2022-08-03T00:01:30;16.80;99.90
22450;DHT22;11392;57.390;-2.468;2022-08-03T00:03:58;16.60;99.90
22450;DHT22;11392;57.390;-2.468;2022-08-03T00:06:25;16.50;99.90
22450;DHT22;11392;57.390;-2.468;2022-08-03T00:08:52;16.50;99.90
22450;DHT22;11392;57.390;-2.468;2022-08-03T00:11:19;16.50;99.90
22450;DHT22;11392;57.390;-2.468;2022-08-03T00:13:46;16.50;99.90
22450;DHT22;11392;57.390;-2.468;2022-08-03T00:16:13;16.60;99.90
22450;DHT22;11392;57.390;-2.468;2022-08-03T00:18:41;16.60;99.90
22450;DHT22;11392;57.390;-2.468;2022-08-03T00:21:08;16.70;99.90
22450;DHT22;11392;57.390;-2.468;2022-08-03T00:23:35;16.60;99.90
22450;DHT22;11392;57.390;-2.468;2022-08-03T00:26:21;16.70;99.90
22450;DHT22;11392;57.390;-2.468;2022-08-03T00:28:48;16.70;99.90
22450;DHT22;11392;57.390;-2.468;2022-08-03T00:31:16;16.60;99.90
22450;DHT22;11392;57.390;-2.468;2022-08-03T00:34:03;16.70;99.90
22450;DHT22;11392;57.390;-2.468;2022-08-03T00:36:32;16.60;99.90
22450;DHT22;11392;57.390;-2.468;2022-08-03T00:38:59;16.60;99.90
22450;DHT22;11392;57.390;-2.468;2022-08-03T00:41:26;16.60;99.90
22450;DHT22;11392;57.390;-2.468;2022-08-03T00:43:53;16.60;99.90
22450;DHT22;11392;57.390;-2.468;2022-08-03T00:46:20;16.60;99.90
22450;DHT22;11392;57.390;-2.468;2022-08-03T00:48:50;16.50;99.90
22450;DHT22;11392;57.390;-2.468;2022-08-03T00:51:18;16.60;99.90
22450;DHT22;11392;57.390;-2.468;2022-08-03T00:53:46;16.60;99.90
22450;DHT22;11392;57.390;-2.468;2022-08-03T00:56:15;16.50;99.90
22450;DHT22;11392;57.390;-2.468;2022-08-03T00:58:45;16.50;99.90
22450;DHT22;11392;57.390;-2.468;2022-08-03T01:01:13;16.50;99.90
22450;DHT22;11392;57.390;-2.468;2022-08-03T01:03:41;16.50;99.90
22450;DHT22;11392;57.390;-2.468;2022-08-03T01:06:17;16.40;99.90
22450;DHT22;11392;57.390;-2.468;2022-08-03T01:09:27;16.40;99.90
22450;DHT22;11392;57.390;-2.468;2022-08-03T01:12:09;16.40;99.90
22450;DHT22;11392;57.390;-2.468;2022-08-03T01:14:42;16.40;99.90
22450;DHT22;11392;57.390;-2.468;2022-08-03T01:17:22;16.40;99.90
22450;DHT22;11392;57.390;-2.468;2022-08-03T01:19:59;16.40;99.90
22450;DHT22;11392;57.390;-2.468;2022-08-03T01:30:52;16.30;99.90
22450;DHT22;11392;57.390;-2.468;2022-08-03T01:33:25;16.40;99.90
22450;DHT22;11392;57.390;-2.468;2022-08-03T01:35:59;16.30;99.90
22450;DHT22;11392;57.390;-2.468;2022-08-03T01:38:38;16.30;99.90
22450;DHT22;11392;57.390;-2.468;2022-08-03T01:41:11;16.30;99.90
22450;DHT22;11392;57.390;-2.468;2022-08-03T01:43:41;16.30;99.90
22450;DHT22;11392;57.390;-2.468;2022-08-03T01:46:30;16.30;99.90
22450;DHT22;11392;57.390;-2.468;2022-08-03T01:48:59;16.20;99.90
22450;DHT22;11392;57.390;-2.468;2022-08-03T01:51:37;16.30;99.90
22450;DHT22;11392;57.390;-2.468;2022-08-03T01:54:25;16.20;99.90
22450;DHT22;11392;57.390;-2.468;2022-08-03T01:56:55;16.30;99.90
22450;DHT22;11392;57.390;-2.468;2022-08-03T01:59:24;16.20;99.90
22450;DHT22;11392;57.390;-2.468;2022-08-03T02:01:53;16.20;99.90
22450;DHT22;11392;57.390;-2.468;2022-08-03T02:04:41;16.30;99.90
22450;DHT22;11392;57.390;-2.468;2022-08-03T02:07:10;16.30;99.90
22450;DHT22;11392;57.390;-2.468;2022-08-03T02:09:39;16.40;99.90
22450;DHT22;11392;57.390;-2.468;2022-08-03T02:12:11;16.40;99.90
22450;DHT22;11392;57.390;-2.468;2022-08-03T02:14:40;16.30;99.90
22450;DHT22;11392;57.390;-2.468;2022-08-03T02:17:09;16.40;99.90
22450;DHT22;11392;57.390;-2.468;2022-08-03T02:19:37;16.30;99.90
22450;DHT22;11392;57.390;-2.468;2022-08-03T02:22:08;16.30;99.90
22450;DHT22;11392;57.390;-2.468;2022-08-03T02:24:36;16.30;99.90
22450;DHT22;11392;57.390;-2.468;2022-08-03T02:27:28;16.30;99.90
22450;DHT22;11392;57.390;-2.468;2022-08-03T02:30:01;16.20;99.90
22450;DHT22;11392;57.390;-2.468;2022-08-03T02:32:31;16.20;99.90
22450;DHT22;11392;57.390;-2.468;2022-08-03T02:35:01;16.20;99.90
22450;DHT22;11392;57.390;-2.468;2022-08-03T02:37:33;16.20;99.90
22450;DHT22;11392;57.390;-2.468;2022-08-03T02:40:03;16.10;99.90
22450;DHT22;11392;57.390;-2.468;2022-08-03T02:42:34;16.10;99.90
22450;DHT22;11392;57.390;-2.468;2022-08-03T02:45:05;16.10;99.90
22450;DHT22;11392;57.390;-2.468;2022-08-03T02:47:36;16.00;99.90
22450;DHT22;11392;57.390;-2.468;2022-08-03T02:50:21;16.00;99.90
22450;DHT22;11392;57.390;-2.468;2022-08-03T02:52:50;16.00;99.90
22450;DHT22;11392;57.390;-2.468;2022-08-03T02:55:20;16.00;99.90
22450;DHT22;11392;57.390;-2.468;2022-08-03T02:57:49;15.90;99.90
22450;DHT22;11392;57.390;-2.468;2022-08-03T03:00:17;15.90;99.90
22450;DHT22;11392;57.390;-2.468;2022-08-03T03:02:55;15.90;99.90
22450;DHT22;11392;57.390;-2.468;2022-08-03T03:05:23;15.80;99.90
22450;DHT22;11392;57.390;-2.468;2022-08-03T03:08:15;15.80;99.90
22450;DHT22;11392;57.390;-2.468;2022-08-03T03:10:52;15.80;99.90
22450;DHT22;11392;57.390;-2.468;2022-08-03T03:13:21;15.80;99.90
22450;DHT22;11392;57.390;-2.468;2022-08-03T03:15:50;15.80;99.90
22450;DHT22;11392;57.390;-2.468;2022-08-03T03:18:20;15.80;99.90
22450;DHT22;11392;57.390;-2.468;2022-08-03T03:20:50;15.90;99.90
22450;DHT22;11392;57.390;-2.468;2022-08-03T03:23:21;15.90;99.90
22450;DHT22;11392;57.390;-2.468;2022-08-03T03:25:48;15.80;99.90
22450;DHT22;11392;57.390;-2.468;2022-08-03T03:28:16;15.90;99.90
22450;DHT22;11392;57.390;-2.468;2022-08-03T03:30:43;15.90;99.90
22450;DHT22;11392;57.390;-2.468;2022-08-03T03:33:18;15.90;99.90
22450;DHT22;11392;57.390;-2.468;2022-08-03T03:35:46;15.90;99.90
22450;DHT22;11392;57.390;-2.468;2022-08-03T03:38:13;15.90;99.90
22450;DHT22;11392;57.390;-2.468;2022-08-03T03:40:40;15.90;99.90
22450;DHT22;11392;57.390;-2.468;2022-08-03T03:43:09;15.80;99.90
22450;DHT22;11392;57.390;-2.468;2022-08-03T03:45:37;15.70;99.90
22450;DHT22;11392;57.390;-2.468;2022-08-03T03:48:06;15.80;99.90
22450;DHT22;11392;57.390;-2.468;2022-08-03T03:50:34;15.70;99.90
22450;DHT22;11392;57.390;-2.468;2022-08-03T03:53:03;15.70;99.90
22450;DHT22;11392;57.390;-2.468;2022-08-03T03:55:30;15.60;99.90
22450;DHT22;11392;57.390;-2.468;2022-08-03T03:57:57;15.60;99.90
22450;DHT22;11392;57.390;-2.468;2022-08-03T04:00:24;15.70;99.90
22450;DHT22;11392;57.390;-2.468;2022-08-03T04:02:51;15.60;99.90
22450;DHT22;11392;57.390;-2.468;2022-08-03T04:05:18;15.50;99.90
22450;DHT22;11392;57.390;-2.468;2022-08-03T04:08:12;15.60;99.90
22450;DHT22;11392;57.390;-2.468;2022-08-03T04:11:10;15.50;99.90
22450;DHT22;11392;57.390;-2.468;2022-08-03T04:13:39;15.50;99.90
22450;DHT22;11392;57.390;-2.468;2022-08-03T04:16:11;15.50;99.90
22450;DHT22;11392;57.390;-2.468;2022-08-03T04:18:41;15.50;99.90
22450;DHT22;11392;57.390;-2.468;2022-08-03T04:21:11;15.40;99.90
22450;DHT22;11392;57.390;-2.468;2022-08-03T04:23:45;15.40;99.90
22450;DHT22;11392;57.390;-2.468;2022-08-03T04:26:16;15.30;99.90
22450;DHT22;11392;57.390;-2.468;2022-08-03T04:28:45;15.40;99.90
22450;DHT22;11392;57.390;-2.468;2022-08-03T04:31:14;15.40;99.90
22450;DHT22;11392;57.390;-2.468;2022-08-03T04:33:43;15.40;99.90
22450;DHT22;11392;57.390;-2.468;2022-08-03T04:36:15;15.40;99.90
22450;DHT22;11392;57.390;-2.468;2022-08-03T04:41:23;15.30;99.90
22450;DHT22;11392;57.390;-2.468;2022-08-03T04:43:53;15.30;99.90
22450;DHT22;11392;57.390;-2.468;2022-08-03T04:46:23;15.20;99.90
22450;DHT22;11392;57.390;-2.468;2022-08-03T04:48:52;15.10;99.90
22450;DHT22;11392;57.390;-2.468;2022-08-03T04:51:19;15.20;99.90
22450;DHT22;11392;57.390;-2.468;2022-08-03T04:53:46;15.10;99.90
22450;DHT22;11392;57.390;-2.468;2022-08-03T04:56:13;15.10;99.90
22450;DHT22;11392;57.390;-2.468;2022-08-03T04:58:40;15.10;99.90
22450;DHT22;11392;57.390;-2.468;2022-08-03T05:01:08;15.10;99.90
22450;DHT22;11392;57.390;-2.468;2022-08-03T05:03:35;15.10;99.90
22450;DHT22;11392;57.390;-2.468;2022-08-03T05:06:02;15.10;99.90
22450;DHT22;11392;57.390;-2.468;2022-08-03T05:08:36;15.20;99.90
22450;DHT22;11392;57.390;-2.468;2022-08-03T05:11:15;15.20;99.90
22450;DHT22;11392;57.390;-2.468;2022-08-03T05:13:45;15.20;99.90
22450;DHT22;11392;57.390;-2.468;2022-08-03T05:16:13;15.20;99.90
22450;DHT22;11392;57.390;-2.468;2022-08-03T05:18:41;15.30;99.90
22450;DHT22;11392;57.390;-2.468;2022-08-03T05:21:09;15.30;99.90
22450;DHT22;11392;57.390;-2.468;2022-08-03T05:23:36;15.30;99.90
22450;DHT22;11392;57.390;-2.468;2022-08-03T05:26:03;15.30;99.90
22450;DHT22;11392;57.390;-2.468;2022-08-03T05:28:30;15.30;99.90
22450;DHT22;11392;57.390;-2.468;2022-08-03T05:30:57;15.40;99.90
22450;DHT22;11392;57.390;-2.468;2022-08-03T05:33:25;15.40;99.90
22450;DHT22;11392;57.390;-2.468;2022-08-03T05:35:52;15.40;99.90
22450;DHT22;11392;57.390;-2.468;2022-08-03T05:38:30;15.40;99.90
22450;DHT22;11392;57.390;-2.468;2022-08-03T05:41:02;15.50;99.90
22450;DHT22;11392;57.390;-2.468;2022-08-03T05:43:49;15.50;99.90
22450;DHT22;11392;57.390;-2.468;2022-08-03T05:46:16;15.50;99.90
22450;DHT22;11392;57.390;-2.468;2022-08-03T05:48:43;15.50;99.90
22450;DHT22;11392;57.390;-2.468;2022-08-03T05:51:10;15.60;99.90
22450;DHT22;11392;57.390;-2.468;2022-08-03T05:53:39;15.60;99.90
22450;DHT22;11392;57.390;-2.468;2022-08-03T05:56:06;15.70;99.90
22450;DHT22;11392;57.390;-2.468;2022-08-03T05:58:47;15.70;99.90
22450;DHT22;11392;57.390;-2.468;2022-08-03T06:01:15;15.80;99.90
22450;DHT22;11392;57.390;-2.468;2022-08-03T06:03:43;15.80;99.90
22450;DHT22;11392;57.390;-2.468;2022-08-03T06:06:10;15.90;99.90
22450;DHT22;11392;57.390;-2.468;2022-08-03T06:08:38;15.90;99.90
22450;DHT22;11392;57.390;-2.468;2022-08-03T06:11:06;16.00;99.90
22450;DHT22;11392;57.390;-2.468;2022-08-03T06:13:33;16.10;99.90
22450;DHT22;11392;57.390;-2.468;2022-08-03T06:16:01;16.10;99.90
22450;DHT22;11392;57.390;-2.468;2022-08-03T06:18:28;16.20;99.90
22450;DHT22;11392;57.390;-2.468;2022-08-03T06:20:55;16.20;99.90
22450;DHT22;11392;57.390;-2.468;2022-08-03T06:23:22;16.30;99.90
22450;DHT22;11392;57.390;-2.468;2022-08-03T06:26:09;16.40;99.90
22450;DHT22;11392;57.390;-2.468;2022-08-03T06:28:39;16.50;99.90
22450;DHT22;11392;57.390;-2.468;2022-08-03T06:31:20;16.60;99.90
22450;DHT22;11392;57.390;-2.468;2022-08-03T06:33:50;16.70;99.90
22450;DHT22;11392;57.390;-2.468;2022-08-03T06:36:37;16.80;99.90
22450;DHT22;11392;57.390;-2.468;2022-08-03T06:39:05;16.80;99.90
22450;DHT22;11392;57.390;-2.468;2022-08-03T06:41:33;16.70;99.90
22450;DHT22;11392;57.390;-2.468;2022-08-03T06:44:04;16.60;99.90
22450;DHT22;11392;57.390;-2.468;2022-08-03T06:46:31;16.60;99.90
22450;DHT22;11392;57.390;-2.468;2022-08-03T06:48:57;16.80;99.90
22450;DHT22;11392;57.390;-2.468;2022-08-03T06:51:25;16.90;99.90
22450;DHT22;11392;57.390;-2.468;2022-08-03T06:54:12;17.00;99.90
22450;DHT22;11392;57.390;-2.468;2022-08-03T06:56:39;17.20;99.90
22450;DHT22;11392;57.390;-2.468;2022-08-03T06:59:06;17.30;99.90
22450;DHT22;11392;57.390;-2.468;2022-08-03T07:01:33;17.40;99.90
22450;DHT22;11392;57.390;-2.468;2022-08-03T07:04:00;17.50;99.90
22450;DHT22;11392;57.390;-2.468;2022-08-03T07:06:27;17.50;99.90
22450;DHT22;11392;57.390;-2.468;2022-08-03T07:08:54;17.60;99.90
22450;DHT22;11392;57.390;-2.468;2022-08-03T07:11:25;17.70;99.90
22450;DHT22;11392;57.390;-2.468;2022-08-03T07:13:52;17.80;99.90
22450;DHT22;11392;57.390;-2.468;2022-08-03T07:16:19;17.90;99.90
22450;DHT22;11392;57.390;-2.468;2022-08-03T07:18:47;18.00;99.90
22450;DHT22;11392;57.390;-2.468;2022-08-03T07:21:14;18.20;99.90
22450;DHT22;11392;57.390;-2.468;2022-08-03T07:23:42;18.00;99.90
22450;DHT22;11392;57.390;-2.468;2022-08-03T07:26:09;17.70;99.90
22450;DHT22;11392;57.390;-2.468;2022-08-03T07:28:37;17.60;99.90
22450;DHT22;11392;57.390;-2.468;2022-08-03T07:31:04;17.60;99.90
22450;DHT22;11392;57.390;-2.468;2022-08-03T07:33:31;17.60;99.90
22450;DHT22;11392;57.390;-2.468;2022-08-03T07:35:58;17.80;99.90
22450;DHT22;11392;57.390;-2.468;2022-08-03T07:38:25;18.10;99.90
22450;DHT22;11392;57.390;-2.468;2022-08-03T07:40:52;18.20;99.90
22450;DHT22;11392;57.390;-2.468;2022-08-03T07:43:20;18.40;99.90
22450;DHT22;11392;57.390;-2.468;2022-08-03T07:45:47;18.60;99.90
22450;DHT22;11392;57.390;-2.468;2022-08-03T07:48:14;18.90;99.90
22450;DHT22;11392;57.390;-2.468;2022-08-03T07:50:40;19.00;99.90
22450;DHT22;11392;57.390;-2.468;2022-08-03T07:53:08;19.20;99.90
22450;DHT22;11392;57.390;-2.468;2022-08-03T07:55:35;19.30;99.90
22450;DHT22;11392;57.390;-2.468;2022-08-03T07:58:05;19.40;99.90
22450;DHT22;11392;57.390;-2.468;2022-08-03T08:00:32;19.60;99.90
22450;DHT22;11392;57.390;-2.468;2022-08-03T08:02:59;19.80;99.90
22450;DHT22;11392;57.390;-2.468;2022-08-03T08:05:27;19.90;99.90
22450;DHT22;11392;57.390;-2.468;2022-08-03T08:07:54;20.10;99.90
22450;DHT22;11392;57.390;-2.468;2022-08-03T08:10:21;20.20;99.90
22450;DHT22;11392;57.390;-2.468;2022-08-03T08:12:49;20.30;99.90
22450;DHT22;11392;57.390;-2.468;2022-08-03T08:15:17;19.80;99.90
22450;DHT22;11392;57.390;-2.468;2022-08-03T08:17:52;19.40;99.90
22450;DHT22;11392;57.390;-2.468;2022-08-03T08:20:22;19.00;99.90
22450;DHT22;11392;57.390;-2.468;2022-08-03T08:22:58;19.10;99.90
22450;DHT22;11392;57.390;-2.468;2022-08-03T08:25:28;19.30;99.90
22450;DHT22;11392;57.390;-2.468;2022-08-03T08:27:57;19.70;99.90
22450;DHT22;11392;57.390;-2.468;2022-08-03T08:30:44;20.00;99.90
22450;DHT22;11392;57.390;-2.468;2022-08-03T08:33:12;20.40;99.90
22450;DHT22;11392;57.390;-2.468;2022-08-03T08:35:50;20.60;99.90
22450;DHT22;11392;57.390;-2.468;2022-08-03T08:38:18;20.80;99.90
22450;DHT22;11392;57.390;-2.468;2022-08-03T08:40:47;20.90;99.90
22450;DHT22;11392;57.390;-2.468;2022-08-03T08:43:14;21.20;99.90
22450;DHT22;11392;57.390;-2.468;2022-08-03T08:45:41;21.30;99.90
22450;DHT22;11392;57.390;-2.468;2022-08-03T08:48:09;21.50;99.90
22450;DHT22;11392;57.390;-2.468;2022-08-03T08:50:38;21.60;99.90
22450;DHT22;11392;57.390;-2.468;2022-08-03T08:53:06;21.70;99.90
22450;DHT22;11392;57.390;-2.468;2022-08-03T08:55:46;22.00;99.90
22450;DHT22;11392;57.390;-2.468;2022-08-03T08:58:28;22.00;99.90
22450;DHT22;11392;57.390;-2.468;2022-08-03T09:00:55;22.30;99.90
22450;DHT22;11392;57.390;-2.468;2022-08-03T09:03:22;22.20;99.90
22450;DHT22;11392;57.390;-2.468;2022-08-03T09:05:57;21.70;99.90
22450;DHT22;11392;57.390;-2.468;2022-08-03T09:08:24;21.10;99.90
22450;DHT22;11392;57.390;-2.468;2022-08-03T09:10:51;20.70;99.90
22450;DHT22;11392;57.390;-2.468;2022-08-03T09:13:18;20.40;99.90
22450;DHT22;11392;57.390;-2.468;2022-08-03T09:15:45;20.00;99.90
22450;DHT22;11392;57.390;-2.468;2022-08-03T09:18:30;19.80;99.90
22450;DHT22;11392;57.390;-2.468;2022-08-03T09:21:15;19.60;99.90
22450;DHT22;11392;57.390;-2.468;2022-08-03T09:23:58;19.40;99.90
22450;DHT22;11392;57.390;-2.468;2022-08-03T09:26:30;19.20;99.90
22450;DHT22;11392;57.390;-2.468;2022-08-03T09:29:08;19.00;99.90
22450;DHT22;11392;57.390;-2.468;2022-08-03T09:31:45;18.80;99.90
22450;DHT22;11392;57.390;-2.468;2022-08-03T09:34:14;18.70;99.90
22450;DHT22;11392;57.390;-2.468;2022-08-03T09:36:47;18.70;99.90
22450;DHT22;11392;57.390;-2.468;2022-08-03T09:39:19;18.70;99.90
22450;DHT22;11392;57.390;-2.468;2022-08-03T09:42:15;18.70;99.90
22450;DHT22;11392;57.390;-2.468;2022-08-03T09:44:50;18.70;99.90
22450;DHT22;11392;57.390;-2.468;2022-08-03T09:47:32;18.70;99.90
22450;DHT22;11392;57.390;-2.468;2022-08-03T09:50:06;19.00;99.90
22450;DHT22;11392;57.390;-2.468;2022-08-03T09:52:34;19.20;99.90
22450;DHT22;11392;57.390;-2.468;2022-08-03T09:55:15;19.20;99.90
22450;DHT22;11392;57.390;-2.468;2022-08-03T09:58:05;19.30;99.90
22450;DHT22;11392;57.390;-2.468;2022-08-03T10:00:59;19.30;99.90
22450;DHT22;11392;57.390;-2.468;2022-08-03T10:03:27;19.30;99.90
22450;DHT22;11392;57.390;-2.468;2022-08-03T10:05:55;19.30;99.90
22450;DHT22;11392;57.390;-2.468;2022-08-03T10:08:25;19.20;99.90
22450;DHT22;11392;57.390;-2.468;2022-08-03T10:10:53;19.00;99.90
22450;DHT22;11392;57.390;-2.468;2022-08-03T10:13:21;19.10;99.90
22450;DHT22;11392;57.390;-2.468;2022-08-03T10:15:49;19.30;99.90
22450;DHT22;11392;57.390;-2.468;2022-08-03T10:18:36;19.40;99.90
22450;DHT22;11392;57.390;-2.468;2022-08-03T10:21:07;19.40;99.90
22450;DHT22;11392;57.390;-2.468;2022-08-03T10:23:35;19.30;99.90
22450;DHT22;11392;57.390;-2.468;2022-08-03T10:26:05;19.30;99.90
22450;DHT22;11392;57.390;-2.468;2022-08-03T10:28:48;19.40;99.90
22450;DHT22;11392;57.390;-2.468;2022-08-03T10:31:17;19.80;99.90
22450;DHT22;11392;57.390;-2.468;2022-08-03T10:33:49;19.90;99.90
22450;DHT22;11392;57.390;-2.468;2022-08-03T10:36:23;20.00;99.90
22450;DHT22;11392;57.390;-2.468;2022-08-03T10:38:51;20.20;99.90
22450;DHT22;11392;57.390;-2.468;2022-08-03T10:41:20;20.30;99.90
22450;DHT22;11392;57.390;-2.468;2022-08-03T10:44:09;20.30;99.90
22450;DHT22;11392;57.390;-2.468;2022-08-03T10:46:38;20.30;99.90
22450;DHT22;11392;57.390;-2.468;2022-08-03T10:49:15;20.40;99.90
22450;DHT22;11392;57.390;-2.468;2022-08-03T10:52:02;20.60;99.90
22450;DHT22;11392;57.390;-2.468;2022-08-03T10:54:43;20.70;99.90
22450;DHT22;11392;57.390;-2.468;2022-08-03T10:57:50;20.80;99.90
22450;DHT22;11392;57.390;-2.468;2022-08-03T11:00:26;20.60;99.90
22450;DHT22;11392;57.390;-2.468;2022-08-03T11:03:02;20.40;99.90
22450;DHT22;11392;57.390;-2.468;2022-08-03T11:05:35;20.20;99.90
22450;DHT22;11392;57.390;-2.468;2022-08-03T11:11:01;20.50;99.90
22450;DHT22;11392;57.390;-2.468;2022-08-03T11:13:29;20.80;99.90
22450;DHT22;11392;57.390;-2.468;2022-08-03T11:16:00;21.30;99.90
22450;DHT22;11392;57.390;-2.468;2022-08-03T11:18:32;21.80;99.90
22450;DHT22;11392;57.390;-2.468;2022-08-03T11:20:59;21.90;99.90
22450;DHT22;11392;57.390;-2.468;2022-08-03T11:23:46;21.90;99.90
22450;DHT22;11392;57.390;-2.468;2022-08-03T11:26:31;22.00;99.90
22450;DHT22;11392;57.390;-2.468;2022-08-03T11:29:26;21.80;99.90
22450;DHT22;11392;57.390;-2.468;2022-08-03T11:31:54;21.50;99.90
22450;DHT22;11392;57.390;-2.468;2022-08-03T11:34:22;21.30;99.90
22450;DHT22;11392;57.390;-2.468;2022-08-03T11:37:19;21.00;99.90
22450;DHT22;11392;57.390;-2.468;2022-08-03T11:39:53;20.70;99.90
22450;DHT22;11392;57.390;-2.468;2022-08-03T11:44:56;20.40;99.90
22450;DHT22;11392;57.390;-2.468;2022-08-03T11:47:26;20.30;99.90
22450;DHT22;11392;57.390;-2.468;2022-08-03T11:49:55;20.10;99.90
22450;DHT22;11392;57.390;-2.468;2022-08-03T11:52:25;20.20;99.90
22450;DHT22;11392;57.390;-2.468;2022-08-03T11:54:54;20.30;99.90
22450;DHT22;11392;57.390;-2.468;2022-08-03T11:57:33;20.60;99.90
22450;DHT22;11392;57.390;-2.468;2022-08-03T12:00:26;21.10;99.90
22450;DHT22;11392;57.390;-2.468;2022-08-03T12:02:58;22.00;99.90
22450;DHT22;11392;57.390;-2.468;2022-08-03T12:08:03;22.50;99.90
22450;DHT22;11392;57.390;-2.468;2022-08-03T12:10:33;23.00;99.90
22450;DHT22;11392;57.390;-2.468;2022-08-03T12:13:02;22.80;99.90
22450;DHT22;11392;57.390;-2.468;2022-08-03T12:15:57;22.80;99.90
22450;DHT22;11392;57.390;-2.468;2022-08-03T12:18:27;22.60;99.90
22450;DHT22;11392;57.390;-2.468;2022-08-03T12:21:07;22.40;99.90
22450;DHT22;11392;57.390;-2.468;2022-08-03T12:23:35;22.30;99.90
22450;DHT22;11392;57.390;-2.468;2022-08-03T12:26:08;22.20;99.90
22450;DHT22;11392;57.390;-2.468;2022-08-03T12:28:36;22.10;99.90
22450;DHT22;11392;57.390;-2.468;2022-08-03T12:31:06;22.00;99.90
22450;DHT22;11392;57.390;-2.468;2022-08-03T12:34:00;22.00;99.90
22450;DHT22;11392;57.390;-2.468;2022-08-03T12:36:30;21.80;99.90
22450;DHT22;11392;57.390;-2.468;2022-08-03T12:39:03;21.70;99.90
22450;DHT22;11392;57.390;-2.468;2022-08-03T12:41:35;21.60;99.90
22450;DHT22;11392;57.390;-2.468;2022-08-03T12:44:03;21.50;99.90
22450;DHT22;11392;57.390;-2.468;2022-08-03T12:46:34;21.60;99.90
22450;DHT22;11392;57.390;-2.468;2022-08-03T12:49:05;21.70;99.90
22450;DHT22;11392;57.390;-2.468;2022-08-03T12:51:35;21.70;99.90
22450;DHT22;11392;57.390;-2.468;2022-08-03T12:54:03;21.70;99.90
22450;DHT22;11392;57.390;-2.468;2022-08-03T12:56:31;21.70;99.90
22450;DHT22;11392;57.390;-2.468;2022-08-03T12:58:58;21.70;99.90
22450;DHT22;11392;57.390;-2.468;2022-08-03T13:01:25;21.70;99.90
22450;DHT22;11392;57.390;-2.468;2022-08-03T13:03:57;21.80;99.90
22450;DHT22;11392;57.390;-2.468;2022-08-03T13:06:26;21.90;99.90
22450;DHT22;11392;57.390;-2.468;2022-08-03T13:09:05;22.00;99.90
22450;DHT22;11392;57.390;-2.468;2022-08-03T13:11:32;21.90;99.90
22450;DHT22;11392;57.390;-2.468;2022-08-03T13:14:19;21.90;99.90
22450;DHT22;11392;57.390;-2.468;2022-08-03T13:16:47;22.00;99.90
22450;DHT22;11392;57.390;-2.468;2022-08-03T13:19:15;22.10;99.90
22450;DHT22;11392;57.390;-2.468;2022-08-03T13:21:42;21.90;99.90
22450;DHT22;11392;57.390;-2.468;2022-08-03T13:24:30;21.80;99.90
22450;DHT22;11392;57.390;-2.468;2022-08-03T13:26:58;21.60;99.90
22450;DHT22;11392;57.390;-2.468;2022-08-03T13:29:26;21.50;99.90
22450;DHT22;11392;57.390;-2.468;2022-08-03T13:31:53;21.50;99.90
22450;DHT22;11392;57.390;-2.468;2022-08-03T13:34:20;21.60;99.90
22450;DHT22;11392;57.390;-2.468;2022-08-03T13:36:53;21.90;99.90
22450;DHT22;11392;57.390;-2.468;2022-08-03T13:39:36;22.20;99.90
22450;DHT22;11392;57.390;-2.468;2022-08-03T13:42:24;22.20;99.90
22450;DHT22;11392;57.390;-2.468;2022-08-03T13:44:51;22.20;99.90
22450;DHT22;11392;57.390;-2.468;2022-08-03T13:47:18;21.90;99.90
22450;DHT22;11392;57.390;-2.468;2022-08-03T13:49:46;21.60;99.90
22450;DHT22;11392;57.390;-2.468;2022-08-03T13:52:31;21.30;99.90
22450;DHT22;11392;57.390;-2.468;2022-08-03T13:55:01;20.80;99.90
22450;DHT22;11392;57.390;-2.468;2022-08-03T13:57:29;20.60;99.90
22450;DHT22;11392;57.390;-2.468;2022-08-03T14:00:17;20.10;99.90
22450;DHT22;11392;57.390;-2.468;2022-08-03T14:02:59;19.80;99.90
22450;DHT22;11392;57.390;-2.468;2022-08-03T14:05:42;19.60;99.90
22450;DHT22;11392;57.390;-2.468;2022-08-03T14:08:11;19.30;99.90
22450;DHT22;11392;57.390;-2.468;2022-08-03T14:10:42;19.20;99.90
22450;DHT22;11392;57.390;-2.468;2022-08-03T14:13:11;19.30;99.90
22450;DHT22;11392;57.390;-2.468;2022-08-03T14:15:42;19.30;99.90
22450;DHT22;11392;57.390;-2.468;2022-08-03T14:18:16;19.30;99.90
22450;DHT22;11392;57.390;-2.468;2022-08-03T14:21:01;19.30;99.90
22450;DHT22;11392;57.390;-2.468;2022-08-03T14:23:34;19.30;99.90
22450;DHT22;11392;57.390;-2.468;2022-08-03T14:26:03;19.20;99.90
22450;DHT22;11392;57.390;-2.468;2022-08-03T14:28:30;19.20;99.90
22450;DHT22;11392;57.390;-2.468;2022-08-03T14:30:57;18.90;99.90
22450;DHT22;11392;57.390;-2.468;2022-08-03T14:33:24;18.80;99.90
22450;DHT22;11392;57.390;-2.468;2022-08-03T14:35:51;18.60;99.90
22450;DHT22;11392;57.390;-2.468;2022-08-03T14:38:19;18.40;99.90
22450;DHT22;11392;57.390;-2.468;2022-08-03T14:40:47;18.30;99.90
22450;DHT22;11392;57.390;-2.468;2022-08-03T14:43:15;18.30;99.90
22450;DHT22;11392;57.390;-2.468;2022-08-03T14:45:49;18.30;99.90
22450;DHT22;11392;57.390;-2.468;2022-08-03T14:48:22;18.50;99.90
22450;DHT22;11392;57.390;-2.468;2022-08-03T14:51:09;18.40;99.90
22450;DHT22;11392;57.390;-2.468;2022-08-03T14:53:36;18.60;99.90
22450;DHT22;11392;57.390;-2.468;2022-08-03T14:56:04;18.60;99.90
22450;DHT22;11392;57.390;-2.468;2022-08-03T14:58:36;18.70;99.90
22450;DHT22;11392;57.390;-2.468;2022-08-03T15:01:03;18.70;99.90
22450;DHT22;11392;57.390;-2.468;2022-08-03T15:03:50;18.80;99.90
22450;DHT22;11392;57.390;-2.468;2022-08-03T15:06:17;19.00;99.90
22450;DHT22;11392;57.390;-2.468;2022-08-03T15:08:44;19.50;99.90
22450;DHT22;11392;57.390;-2.468;2022-08-03T15:11:31;20.00;99.90
22450;DHT22;11392;57.390;-2.468;2022-08-03T15:13:58;20.40;99.90
22450;DHT22;11392;57.390;-2.468;2022-08-03T15:16:26;20.40;99.90
22450;DHT22;11392;57.390;-2.468;2022-08-03T15:18:56;20.20;99.90
22450;DHT22;11392;57.390;-2.468;2022-08-03T15:21:23;19.80;99.90
22450;DHT22;11392;57.390;-2.468;2022-08-03T15:24:10;19.80;99.90
22450;DHT22;11392;57.390;-2.468;2022-08-03T15:26:37;19.70;99.90
22450;DHT22;11392;57.390;-2.468;2022-08-03T15:29:07;19.70;99.90
22450;DHT22;11392;57.390;-2.468;2022-08-03T15:31:54;19.70;99.90
22450;DHT22;11392;57.390;-2.468;2022-08-03T15:34:21;19.50;99.90
22450;DHT22;11392;57.390;-2.468;2022-08-03T15:36:48;19.20;99.90
22450;DHT22;11392;57.390;-2.468;2022-08-03T15:39:15;19.20;99.90
22450;DHT22;11392;57.390;-2.468;2022-08-03T15:41:42;19.20;99.90
22450;DHT22;11392;57.390;-2.468;2022-08-03T15:44:10;19.30;99.90
22450;DHT22;11392;57.390;-2.468;2022-08-03T15:46:37;19.30;99.90
22450;DHT22;11392;57.390;-2.468;2022-08-03T15:49:04;19.00;99.90
22450;DHT22;11392;57.390;-2.468;2022-08-03T15:51:31;18.90;99.90
22450;DHT22;11392;57.390;-2.468;2022-08-03T15:53:58;18.80;99.90
22450;DHT22;11392;57.390;-2.468;2022-08-03T15:56:25;18.80;99.90
22450;DHT22;11392;57.390;-2.468;2022-08-03T15:58:52;18.60;99.90
22450;DHT22;11392;57.390;-2.468;2022-08-03T16:01:38;18.60;99.90
22450;DHT22;11392;57.390;-2.468;2022-08-03T16:04:06;18.60;99.90